sensor_id;sensor_type;location;lat;lon;timestamp;pressure;altitude;pressure_sealevel;temperature;humidity
75998;BME280;64685;48.762;44.822;2023-12-20T00:02:55;101617.09;;;5.79;100.00
75998;BME280;64685;48.762;44.822;2023-12-20T00:07:58;101614.53;;;5.73;100.00
75998;BME280;64685;48.762;44.822;2023-12-20T00:13:01;101625.75;;;5.88;100.00
75998;BME280;64685;48.762;44.822;2023-12-20T00:18:04;101630.00;;;6.05;100.00
75998;BME280;64685;48.762;44.822;2023-12-20T00:23:07;101638.00;;;5.97;100.00
75998;BME280;64685;48.762;44.822;2023-12-20T00:28:10;101642.16;;;6.04;100.00
75998;BME280;64685;48.762;44.822;2023-12-20T00:33:13;101642.19;;;6.09;100.00
75998;BME280;64685;48.762;44.822;2023-12-20T00:38:16;101637.53;;;6.20;100.00
75998;BME280;64685;48.762;44.822;2023-12-20T00:43:19;101646.16;;;6.23;100.00
75998;BME280;64685;48.762;44.822;2023-12-20T00:48:22;101631.44;;;6.23;100.00
75998;BME280;64685;48.762;44.822;2023-12-20T00:53:25;101645.03;;;6.24;100.00
75998;BME280;64685;48.762;44.822;2023-12-20T00:58:27;101634.50;;;6.31;100.00
75998;BME280;64685;48.762;44.822;2023-12-20T01:03:30;101637.81;;;6.18;100.00
75998;BME280;64685;48.762;44.822;2023-12-20T01:08:33;101619.47;;;6.12;100.00
75998;BME280;64685;48.762;44.822;2023-12-20T01:13:37;101619.44;;;6.02;100.00
75998;BME280;64685;48.762;44.822;2023-12-20T01:18:40;101622.19;;;5.97;100.00
75998;BME280;64685;48.762;44.822;2023-12-20T01:23:42;101632.13;;;5.93;100.00
75998;BME280;64685;48.762;44.822;2023-12-20T01:28:45;101605.69;;;5.76;100.00
75998;BME280;64685;48.762;44.822;2023-12-20T01:33:48;101619.00;;;5.74;100.00
75998;BME280;64685;48.762;44.822;2023-12-20T01:38:51;101599.25;;;5.60;100.00
75998;BME280;64685;48.762;44.822;2023-12-20T01:43:53;101604.56;;;5.72;100.00
75998;BME280;64685;48.762;44.822;2023-12-20T01:48:56;101604.03;;;5.75;100.00
75998;BME280;64685;48.762;44.822;2023-12-20T01:54:00;101617.06;;;5.74;100.00
75998;BME280;64685;48.762;44.822;2023-12-20T01:59:03;101611.22;;;5.71;100.00
75998;BME280;64685;48.762;44.822;2023-12-20T02:04:07;101607.16;;;5.83;100.00
75998;BME280;64685;48.762;44.822;2023-12-20T02:09:10;101615.69;;;5.77;100.00
75998;BME280;64685;48.762;44.822;2023-12-20T02:14:13;101599.13;;;5.82;100.00
75998;BME280;64685;48.762;44.822;2023-12-20T02:19:17;101598.06;;;5.93;100.00
75998;BME280;64685;48.762;44.822;2023-12-20T02:24:20;101584.47;;;5.91;100.00
75998;BME280;64685;48.762;44.822;2023-12-20T02:29:23;101580.31;;;5.94;100.00
75998;BME280;64685;48.762;44.822;2023-12-20T02:34:25;101578.88;;;5.86;100.00
75998;BME280;64685;48.762;44.822;2023-12-20T02:39:28;101578.88;;;5.86;100.00
75998;BME280;64685;48.762;44.822;2023-12-20T02:44:31;101579.47;;;5.88;100.00
75998;BME280;64685;48.762;44.822;2023-12-20T02:49:34;101594.41;;;5.87;100.00
75998;BME280;64685;48.762;44.822;2023-12-20T02:54:37;101604.13;;;5.90;100.00
75998;BME280;64685;48.762;44.822;2023-12-20T02:59:40;101590.03;;;5.96;100.00
75998;BME280;64685;48.762;44.822;2023-12-20T03:04:43;101590.56;;;5.98;100.00
75998;BME280;64685;48.762;44.822;2023-12-20T03:09:46;101576.50;;;6.10;100.00
75998;BME280;64685;48.762;44.822;2023-12-20T03:15:09;101583.94;;;5.99;100.00
75998;BME280;64685;48.762;44.822;2023-12-20T03:20:11;101585.63;;;6.00;100.00
75998;BME280;64685;48.762;44.822;2023-12-20T03:25:14;101595.31;;;6.03;100.00
75998;BME280;64685;48.762;44.822;2023-12-20T03:30:17;101598.38;;;6.06;100.00
75998;BME280;64685;48.762;44.822;2023-12-20T03:35:20;101602.00;;;6.12;100.00
75998;BME280;64685;48.762;44.822;2023-12-20T03:40:23;101595.88;;;6.05;100.00
75998;BME280;64685;48.762;44.822;2023-12-20T03:45:26;101610.31;;;6.12;100.00
75998;BME280;64685;48.762;44.822;2023-12-20T03:50:29;101611.66;;;5.94;100.00
75998;BME280;64685;48.762;44.822;2023-12-20T03:55:32;101603.63;;;5.98;100.00
75998;BME280;64685;48.762;44.822;2023-12-20T04:00:35;101618.63;;;6.12;100.00
75998;BME280;64685;48.762;44.822;2023-12-20T04:05:38;101625.88;;;6.23;100.00
75998;BME280;64685;48.762;44.822;2023-12-20T04:10:40;101623.09;;;6.18;100.00
75998;BME280;64685;48.762;44.822;2023-12-20T04:15:43;101602.00;;;6.12;100.00
75998;BME280;64685;48.762;44.822;2023-12-20T04:20:46;101625.56;;;6.09;100.00
75998;BME280;64685;48.762;44.822;2023-12-20T04:25:52;101625.31;;;6.16;100.00
75998;BME280;64685;48.762;44.822;2023-12-20T04:30:56;101616.94;;;6.01;100.00
75998;BME280;64685;48.762;44.822;2023-12-20T04:35:59;101621.09;;;6.03;100.00
75998;BME280;64685;48.762;44.822;2023-12-20T04:41:02;101618.31;;;5.98;100.00
75998;BME280;64685;48.762;44.822;2023-12-20T04:46:06;101619.44;;;6.02;100.00
75998;BME280;64685;48.762;44.822;2023-12-20T04:51:08;101623.38;;;6.11;100.00
75998;BME280;64685;48.762;44.822;2023-12-20T04:56:11;101636.94;;;6.13;100.00
75998;BME280;64685;48.762;44.822;2023-12-20T05:01:14;101628.94;;;6.16;100.00
75998;BME280;64685;48.762;44.822;2023-12-20T05:06:17;101625.56;;;6.14;100.00
75998;BME280;64685;48.762;44.822;2023-12-20T05:11:20;101630.59;;;6.17;100.00
75998;BME280;64685;48.762;44.822;2023-12-20T05:16:23;101638.09;;;6.22;100.00
75998;BME280;64685;48.762;44.822;2023-12-20T05:21:26;101631.47;;;6.33;100.00
75998;BME280;64685;48.762;44.822;2023-12-20T05:26:29;101638.94;;;6.32;100.00
75998;BME280;64685;48.762;44.822;2023-12-20T05:31:32;101645.88;;;6.35;100.00
75998;BME280;64685;48.762;44.822;2023-12-20T05:36:36;101654.28;;;6.55;100.00
75998;BME280;64685;48.762;44.822;2023-12-20T05:41:39;101670.94;;;6.60;100.00
75998;BME280;64685;48.762;44.822;2023-12-20T05:46:42;101667.31;;;6.54;100.00
75998;BME280;64685;48.762;44.822;2023-12-20T05:51:45;101677.63;;;6.69;100.00
75998;BME280;64685;48.762;44.822;2023-12-20T05:56:48;101668.19;;;6.75;100.00
75998;BME280;64685;48.762;44.822;2023-12-20T06:01:51;101686.25;;;6.82;100.00
75998;BME280;64685;48.762;44.822;2023-12-20T06:06:54;101676.25;;;6.76;100.00
75998;BME280;64685;48.762;44.822;2023-12-20T06:11:57;101678.50;;;6.94;100.00
75998;BME280;64685;48.762;44.822;2023-12-20T06:17:00;101675.19;;;6.92;100.00
75998;BME280;64685;48.762;44.822;2023-12-20T06:22:03;101674.31;;;6.92;100.00
75998;BME280;64685;48.762;44.822;2023-12-20T06:27:06;101684.88;;;6.90;100.00
75998;BME280;64685;48.762;44.822;2023-12-20T06:32:09;101689.63;;;6.84;100.00
75998;BME280;64685;48.762;44.822;2023-12-20T06:37:12;101697.66;;;6.86;100.00
75998;BME280;64685;48.762;44.822;2023-12-20T06:42:15;101703.25;;;7.11;100.00
75998;BME280;64685;48.762;44.822;2023-12-20T06:47:18;101699.03;;;6.88;100.00
75998;BME280;64685;48.762;44.822;2023-12-20T06:52:21;101684.63;;;6.96;100.00
75998;BME280;64685;48.762;44.822;2023-12-20T06:57:24;101689.06;;;6.97;100.00
75998;BME280;64685;48.762;44.822;2023-12-20T07:02:28;101676.59;;;7.05;100.00
75998;BME280;64685;48.762;44.822;2023-12-20T07:07:32;101685.50;;;7.27;100.00
75998;BME280;64685;48.762;44.822;2023-12-20T07:12:36;101681.31;;;7.29;100.00
75998;BME280;64685;48.762;44.822;2023-12-20T07:17:39;101682.41;;;7.28;100.00
75998;BME280;64685;48.762;44.822;2023-12-20T07:22:41;101680.47;;;7.19;100.00
75998;BME280;64685;48.762;44.822;2023-12-20T07:27:44;101665.75;;;7.08;100.00
75998;BME280;64685;48.762;44.822;2023-12-20T07:32:47;101684.06;;;6.99;100.00
75998;BME280;64685;48.762;44.822;2023-12-20T07:37:50;101673.81;;;7.10;100.00
75998;BME280;64685;48.762;44.822;2023-12-20T07:42:53;101669.94;;;7.26;100.00
75998;BME280;64685;48.762;44.822;2023-12-20T07:47:56;101650.19;;;7.27;100.00
75998;BME280;64685;48.762;44.822;2023-12-20T07:52:59;101642.97;;;7.36;100.00
75998;BME280;64685;48.762;44.822;2023-12-20T07:58:03;101650.47;;;7.41;100.00
75998;BME280;64685;48.762;44.822;2023-12-20T08:03:07;101637.09;;;7.53;100.00
75998;BME280;64685;48.762;44.822;2023-12-20T08:08:10;101640.72;;;7.68;100.00
75998;BME280;64685;48.762;44.822;2023-12-20T08:13:13;101634.03;;;7.74;100.00
75998;BME280;64685;48.762;44.822;2023-12-20T08:18:16;101628.38;;;7.89;100.00
75998;BME280;64685;48.762;44.822;2023-12-20T08:23:18;101620.34;;;7.88;100.00
75998;BME280;64685;48.762;44.822;2023-12-20T08:28:25;101622.00;;;7.99;100.00
75998;BME280;64685;48.762;44.822;2023-12-20T08:33:28;101625.53;;;8.14;100.00
75998;BME280;64685;48.762;44.822;2023-12-20T08:38:31;101627.19;;;8.20;100.00
75998;BME280;64685;48.762;44.822;2023-12-20T08:43:34;101624.69;;;8.24;100.00
75998;BME280;64685;48.762;44.822;2023-12-20T08:48:37;101616.03;;;8.30;100.00
75998;BME280;64685;48.762;44.822;2023-12-20T08:53:41;101627.09;;;8.35;100.00
75998;BME280;64685;48.762;44.822;2023-12-20T08:58:45;101596.47;;;8.40;100.00
75998;BME280;64685;48.762;44.822;2023-12-20T09:03:48;101597.97;;;8.66;100.00
75998;BME280;64685;48.762;44.822;2023-12-20T09:08:51;101590.78;;;8.60;100.00
75998;BME280;64685;48.762;44.822;2023-12-20T09:13:54;101574.25;;;8.74;100.00
75998;BME280;64685;48.762;44.822;2023-12-20T09:18:57;101585.75;;;8.62;100.00
75998;BME280;64685;48.762;44.822;2023-12-20T09:24:00;101569.69;;;8.49;100.00
75998;BME280;64685;48.762;44.822;2023-12-20T09:29:03;101571.34;;;8.50;100.00
75998;BME280;64685;48.762;44.822;2023-12-20T09:34:08;101580.75;;;8.64;100.00
75998;BME280;64685;48.762;44.822;2023-12-20T09:39:11;101564.00;;;8.69;100.00
75998;BME280;64685;48.762;44.822;2023-12-20T09:44:16;101568.44;;;8.70;100.00
75998;BME280;64685;48.762;44.822;2023-12-20T09:49:22;101554.38;;;8.85;100.00
75998;BME280;64685;48.762;44.822;2023-12-20T09:54:26;101559.63;;;8.92;100.00
75998;BME280;64685;48.762;44.822;2023-12-20T09:59:29;101551.69;;;9.09;100.00
75998;BME280;64685;48.762;44.822;2023-12-20T10:04:32;101545.16;;;9.18;100.00
75998;BME280;64685;48.762;44.822;2023-12-20T10:09:35;101545.81;;;9.10;100.00
75998;BME280;64685;48.762;44.822;2023-12-20T10:14:39;101542.19;;;9.10;100.00
75998;BME280;64685;48.762;44.822;2023-12-20T10:19:42;101545.84;;;9.05;100.00
75998;BME280;64685;48.762;44.822;2023-12-20T10:24:46;101546.59;;;9.16;100.00
75998;BME280;64685;48.762;44.822;2023-12-20T10:29:49;101543.22;;;9.19;100.00
75998;BME280;64685;48.762;44.822;2023-12-20T10:34:53;101545.66;;;9.25;100.00
75998;BME280;64685;48.762;44.822;2023-12-20T10:39:57;101549.03;;;9.22;100.00
75998;BME280;64685;48.762;44.822;2023-12-20T10:45:02;101539.84;;;9.22;100.00
75998;BME280;64685;48.762;44.822;2023-12-20T10:50:06;101544.31;;;9.46;100.00
75998;BME280;64685;48.762;44.822;2023-12-20T10:55:10;101543.19;;;9.47;100.00
75998;BME280;64685;48.762;44.822;2023-12-20T11:00:14;101540.75;;;9.41;100.00
75998;BME280;64685;48.762;44.822;2023-12-20T11:05:49;101547.66;;;9.48;100.00
75998;BME280;64685;48.762;44.822;2023-12-20T11:10:59;101540.34;;;9.52;100.00
75998;BME280;64685;48.762;44.822;2023-12-20T11:16:04;101536.41;;;9.53;100.00
75998;BME280;64685;48.762;44.822;2023-12-20T11:21:08;101536.75;;;9.52;100.00
75998;BME280;64685;48.762;44.822;2023-12-20T11:26:11;101533.09;;;9.51;100.00
75998;BME280;64685;48.762;44.822;2023-12-20T11:31:14;101538.84;;;9.36;100.00
75998;BME280;64685;48.762;44.822;2023-12-20T11:36:18;101540.66;;;9.51;100.00
75998;BME280;64685;48.762;44.822;2023-12-20T11:41:24;101540.84;;;9.59;100.00
75998;BME280;64685;48.762;44.822;2023-12-20T11:46:27;101517.81;;;9.49;100.00
75998;BME280;64685;48.762;44.822;2023-12-20T11:51:29;101527.69;;;9.36;100.00
75998;BME280;64685;48.762;44.822;2023-12-20T11:56:32;101530.38;;;9.46;100.00
75998;BME280;64685;48.762;44.822;2023-12-20T12:01:35;101534.53;;;9.49;100.00
75998;BME280;64685;48.762;44.822;2023-12-20T12:06:38;101537.69;;;9.42;100.00
75998;BME280;64685;48.762;44.822;2023-12-20T12:11:42;101542.31;;;9.52;100.00
75998;BME280;64685;48.762;44.822;2023-12-20T12:16:45;101550.13;;;9.50;100.00
75998;BME280;64685;48.762;44.822;2023-12-20T12:21:48;101565.81;;;9.46;100.00
75998;BME280;64685;48.762;44.822;2023-12-20T12:26:51;101565.84;;;9.41;100.00
75998;BME280;64685;48.762;44.822;2023-12-20T12:31:54;101565.44;;;9.29;100.00
75998;BME280;64685;48.762;44.822;2023-12-20T12:36:58;101575.69;;;9.33;100.00
75998;BME280;64685;48.762;44.822;2023-12-20T12:42:00;101582.91;;;9.34;100.00
75998;BME280;64685;48.762;44.822;2023-12-20T12:47:13;101578.84;;;9.22;100.00
75998;BME280;64685;48.762;44.822;2023-12-20T12:52:15;101583.69;;;9.11;100.00
75998;BME280;64685;48.762;44.822;2023-12-20T12:57:19;101577.56;;;9.14;100.00
75998;BME280;64685;48.762;44.822;2023-12-20T13:02:22;101578.44;;;9.05;100.00
75998;BME280;64685;48.762;44.822;2023-12-20T13:07:25;101574.88;;;8.99;100.00
75998;BME280;64685;48.762;44.822;2023-12-20T13:12:27;101578.75;;;9.03;100.00
75998;BME280;64685;48.762;44.822;2023-12-20T13:17:30;101570.69;;;9.02;100.00
75998;BME280;64685;48.762;44.822;2023-12-20T13:22:34;101573.22;;;8.98;100.00
75998;BME280;64685;48.762;44.822;2023-12-20T13:27:38;101576.59;;;8.95;100.00
75998;BME280;64685;48.762;44.822;2023-12-20T13:32:41;101568.50;;;8.94;100.00
75998;BME280;64685;48.762;44.822;2023-12-20T13:37:44;101568.59;;;8.89;100.00
75998;BME280;64685;48.762;44.822;2023-12-20T13:42:47;101564.13;;;8.88;100.00
75998;BME280;64685;48.762;44.822;2023-12-20T13:47:51;101571.09;;;8.85;100.00
75998;BME280;64685;48.762;44.822;2023-12-20T13:52:54;101572.59;;;8.73;100.00
75998;BME280;64685;48.762;44.822;2023-12-20T13:57:57;101576.75;;;8.75;100.00
75998;BME280;64685;48.762;44.822;2023-12-20T14:03:02;101569.84;;;8.68;100.00
75998;BME280;64685;48.762;44.822;2023-12-20T14:08:05;101577.97;;;8.64;100.00
75998;BME280;64685;48.762;44.822;2023-12-20T14:13:07;101568.97;;;8.72;100.00
75998;BME280;64685;48.762;44.822;2023-12-20T14:18:10;101587.25;;;8.88;100.00
75998;BME280;64685;48.762;44.822;2023-12-20T14:23:14;101579.44;;;8.85;100.00
75998;BME280;64685;48.762;44.822;2023-12-20T14:28:17;101576.63;;;8.90;100.00
75998;BME280;64685;48.762;44.822;2023-12-20T14:33:21;101592.00;;;8.83;100.00
75998;BME280;64685;48.762;44.822;2023-12-20T14:38:24;101583.56;;;8.93;100.00
75998;BME280;64685;48.762;44.822;2023-12-20T14:43:27;101586.16;;;8.84;100.00
75998;BME280;64685;48.762;44.822;2023-12-20T14:48:30;101586.19;;;8.79;100.00
75998;BME280;64685;48.762;44.822;2023-12-20T14:53:34;101582.13;;;8.67;100.00
75998;BME280;64685;48.762;44.822;2023-12-20T14:58:39;101589.09;;;8.64;100.00
75998;BME280;64685;48.762;44.822;2023-12-20T15:03:42;101593.56;;;8.60;100.00
75998;BME280;64685;48.762;44.822;2023-12-20T15:08:45;101601.41;;;8.58;100.00
75998;BME280;64685;48.762;44.822;2023-12-20T15:13:48;101604.19;;;8.58;100.00
75998;BME280;64685;48.762;44.822;2023-12-20T15:18:57;101611.41;;;8.59;100.00
75998;BME280;64685;48.762;44.822;2023-12-20T15:24:01;101623.25;;;8.75;100.00
75998;BME280;64685;48.762;44.822;2023-12-20T15:29:16;101617.97;;;8.73;100.00
75998;BME280;64685;48.762;44.822;2023-12-20T15:34:19;101614.59;;;8.81;100.00
75998;BME280;64685;48.762;44.822;2023-12-20T15:39:22;101618.78;;;8.79;100.00
75998;BME280;64685;48.762;44.822;2023-12-20T15:44:25;101617.69;;;8.75;100.00
75998;BME280;64685;48.762;44.822;2023-12-20T15:49:28;101615.75;;;8.75;100.00
75998;BME280;64685;48.762;44.822;2023-12-20T15:54:31;101617.44;;;8.71;100.00
75998;BME280;64685;48.762;44.822;2023-12-20T15:59:34;101615.84;;;8.60;100.00
75998;BME280;64685;48.762;44.822;2023-12-20T16:04:38;101625.66;;;8.48;100.00
75998;BME280;64685;48.762;44.822;2023-12-20T16:09:41;101631.50;;;8.46;100.00
75998;BME280;64685;48.762;44.822;2023-12-20T16:14:44;101619.03;;;8.44;100.00
75998;BME280;64685;48.762;44.822;2023-12-20T16:19:46;101603.16;;;8.39;100.00
75998;BME280;64685;48.762;44.822;2023-12-20T16:24:49;101601.50;;;8.38;100.00
75998;BME280;64685;48.762;44.822;2023-12-20T16:29:52;101610.91;;;8.52;100.00
75998;BME280;64685;48.762;44.822;2023-12-20T16:34:55;101600.50;;;8.68;100.00
75998;BME280;64685;48.762;44.822;2023-12-20T16:39:58;101600.06;;;8.84;100.00
75998;BME280;64685;48.762;44.822;2023-12-20T16:45:00;101590.59;;;8.85;100.00
75998;BME280;64685;48.762;44.822;2023-12-20T16:50:05;101595.09;;;8.81;100.00
75998;BME280;64685;48.762;44.822;2023-12-20T16:55:10;101597.56;;;8.83;100.00
75998;BME280;64685;48.762;44.822;2023-12-20T17:00:16;101599.47;;;8.92;100.00
75998;BME280;64685;48.762;44.822;2023-12-20T17:05:20;101597.31;;;8.79;100.00
75998;BME280;64685;48.762;44.822;2023-12-20T17:10:25;101598.44;;;8.78;100.00
75998;BME280;64685;48.762;44.822;2023-12-20T17:15:28;101599.03;;;8.75;100.00
75998;BME280;64685;48.762;44.822;2023-12-20T17:20:31;101601.84;;;8.75;100.00
75998;BME280;64685;48.762;44.822;2023-12-20T17:25:34;101593.19;;;8.72;100.00
75998;BME280;64685;48.762;44.822;2023-12-20T17:30:42;101592.91;;;8.73;100.00
75998;BME280;64685;48.762;44.822;2023-12-20T17:35:48;101596.16;;;8.85;100.00
75998;BME280;64685;48.762;44.822;2023-12-20T17:40:55;101588.38;;;8.87;100.00
75998;BME280;64685;48.762;44.822;2023-12-20T17:45:59;101593.88;;;8.97;100.00
75998;BME280;64685;48.762;44.822;2023-12-20T17:51:02;101588.28;;;8.97;100.00
75998;BME280;64685;48.762;44.822;2023-12-20T17:56:05;101593.19;;;9.10;100.00
75998;BME280;64685;48.762;44.822;2023-12-20T18:01:07;101598.91;;;8.90;100.00
75998;BME280;64685;48.762;44.822;2023-12-20T18:06:11;101589.09;;;8.98;100.00
75998;BME280;64685;48.762;44.822;2023-12-20T18:11:14;101591.28;;;9.06;100.00
75998;BME280;64685;48.762;44.822;2023-12-20T18:16:17;101599.16;;;8.94;100.00
75998;BME280;64685;48.762;44.822;2023-12-20T18:21:20;101601.69;;;8.90;100.00
75998;BME280;64685;48.762;44.822;2023-12-20T18:26:24;101611.06;;;9.04;100.00
75998;BME280;64685;48.762;44.822;2023-12-20T18:31:27;101612.94;;;9.14;100.00
75998;BME280;64685;48.762;44.822;2023-12-20T18:36:29;101605.09;;;9.16;100.00
75998;BME280;64685;48.762;44.822;2023-12-20T18:41:32;101607.56;;;9.22;100.00
75998;BME280;64685;48.762;44.822;2023-12-20T18:46:35;101604.31;;;9.39;100.00
75998;BME280;64685;48.762;44.822;2023-12-20T18:51:38;101610.56;;;9.31;100.00
75998;BME280;64685;48.762;44.822;2023-12-20T18:56:41;101612.44;;;9.35;100.00
75998;BME280;64685;48.762;44.822;2023-12-20T19:01:45;101605.16;;;9.39;100.00
75998;BME280;64685;48.762;44.822;2023-12-20T19:06:48;101610.03;;;9.29;100.00
75998;BME280;64685;48.762;44.822;2023-12-20T19:11:52;101613.88;;;9.33;100.00
75998;BME280;64685;48.762;44.822;2023-12-20T19:16:54;101608.00;;;9.34;100.00
75998;BME280;64685;48.762;44.822;2023-12-20T19:22:01;101608.00;;;9.34;100.00
75998;BME280;64685;48.762;44.822;2023-12-20T19:27:04;101604.97;;;9.31;100.00
75998;BME280;64685;48.762;44.822;2023-12-20T19:32:07;101596.66;;;9.26;100.00
75998;BME280;64685;48.762;44.822;2023-12-20T19:37:09;101600.63;;;9.20;100.00
75998;BME280;64685;48.762;44.822;2023-12-20T19:42:12;101597.53;;;9.21;100.00
75998;BME280;64685;48.762;44.822;2023-12-20T19:47:15;101597.53;;;9.21;100.00
75998;BME280;64685;48.762;44.822;2023-12-20T19:52:18;101603.94;;;9.22;100.00
75998;BME280;64685;48.762;44.822;2023-12-20T19:57:20;101608.06;;;9.29;100.00
75998;BME280;64685;48.762;44.822;2023-12-20T20:02:26;101614.22;;;9.26;100.00
75998;BME280;64685;48.762;44.822;2023-12-20T20:07:29;101603.69;;;9.18;100.00
75998;BME280;64685;48.762;44.822;2023-12-20T20:12:31;101612.41;;;9.12;100.00
75998;BME280;64685;48.762;44.822;2023-12-20T20:17:36;101633.06;;;9.06;100.00
75998;BME280;64685;48.762;44.822;2023-12-20T20:22:39;101617.13;;;9.11;100.00
75998;BME280;64685;48.762;44.822;2023-12-20T20:27:43;101620.22;;;9.10;100.00
75998;BME280;64685;48.762;44.822;2023-12-20T20:32:46;101633.88;;;9.06;100.00
75998;BME280;64685;48.762;44.822;2023-12-20T20:37:53;101626.91;;;9.09;100.00
75998;BME280;64685;48.762;44.822;2023-12-20T20:42:56;101630.84;;;9.03;100.00
75998;BME280;64685;48.762;44.822;2023-12-20T20:47:59;101630.59;;;8.99;100.00
75998;BME280;64685;48.762;44.822;2023-12-20T20:53:21;101638.09;;;9.04;100.00
75998;BME280;64685;48.762;44.822;2023-12-20T20:58:25;101628.59;;;9.05;100.00
75998;BME280;64685;48.762;44.822;2023-12-20T21:03:28;101612.22;;;8.98;100.00
75998;BME280;64685;48.762;44.822;2023-12-20T21:08:31;101611.09;;;8.99;100.00
75998;BME280;64685;48.762;44.822;2023-12-20T21:13:33;101602.25;;;8.92;100.00
75998;BME280;64685;48.762;44.822;2023-12-20T21:18:36;101613.19;;;8.84;100.00
75998;BME280;64685;48.762;44.822;2023-12-20T21:23:39;101586.75;;;8.81;100.00
75998;BME280;64685;48.762;44.822;2023-12-20T21:28:42;101600.66;;;8.81;100.00
75998;BME280;64685;48.762;44.822;2023-12-20T21:33:45;101602.69;;;8.71;100.00
75998;BME280;64685;48.762;44.822;2023-12-20T21:38:48;101605.03;;;8.54;100.00
75998;BME280;64685;48.762;44.822;2023-12-20T21:43:52;101600.75;;;8.28;100.00
75998;BME280;64685;48.762;44.822;2023-12-20T21:48:55;101614.97;;;8.11;100.00
75998;BME280;64685;48.762;44.822;2023-12-20T21:53:58;101597.84;;;7.79;100.00
75998;BME280;64685;48.762;44.822;2023-12-20T21:59:05;101614.06;;;7.42;100.00
75998;BME280;64685;48.762;44.822;2023-12-20T22:04:08;101606.84;;;7.16;100.00
75998;BME280;64685;48.762;44.822;2023-12-20T22:09:11;101609.91;;;6.75;100.00
75998;BME280;64685;48.762;44.822;2023-12-20T22:14:14;101607.09;;;6.50;100.00
75998;BME280;64685;48.762;44.822;2023-12-20T22:19:17;101605.34;;;6.24;100.00
75998;BME280;64685;48.762;44.822;2023-12-20T22:24:20;101601.16;;;6.06;100.00
75998;BME280;64685;48.762;44.822;2023-12-20T22:29:23;101606.31;;;5.83;100.00
75998;BME280;64685;48.762;44.822;2023-12-20T22:34:28;101606.53;;;5.71;100.00
75998;BME280;64685;48.762;44.822;2023-12-20T22:39:31;101600.63;;;5.58;100.00
75998;BME280;64685;48.762;44.822;2023-12-20T22:44:33;101600.56;;;5.48;100.00
75998;BME280;64685;48.762;44.822;2023-12-20T22:49:36;101612.41;;;5.38;100.00
75998;BME280;64685;48.762;44.822;2023-12-20T22:54:39;101601.31;;;5.33;100.00
75998;BME280;64685;48.762;44.822;2023-12-20T22:59:42;101604.88;;;5.34;100.00
75998;BME280;64685;48.762;44.822;2023-12-20T23:04:45;101600.16;;;5.29;100.00
75998;BME280;64685;48.762;44.822;2023-12-20T23:09:48;101594.59;;;5.24;100.00
75998;BME280;64685;48.762;44.822;2023-12-20T23:14:50;101590.06;;;5.13;100.00
75998;BME280;64685;48.762;44.822;2023-12-20T23:19:54;101588.03;;;4.99;100.00
75998;BME280;64685;48.762;44.822;2023-12-20T23:24:57;101594.88;;;4.91;100.00
75998;BME280;64685;48.762;44.822;2023-12-20T23:29:59;101585.13;;;4.79;100.00
75998;BME280;64685;48.762;44.822;2023-12-20T23:35:04;101583.91;;;4.70;100.00
75998;BME280;64685;48.762;44.822;2023-12-20T23:40:17;101590.72;;;4.57;100.00
75998;BME280;64685;48.762;44.822;2023-12-20T23:45:20;101573.44;;;4.45;100.00
75998;BME280;64685;48.762;44.822;2023-12-20T23:50:23;101573.88;;;4.32;100.00
75998;BME280;64685;48.762;44.822;2023-12-20T23:55:26;101570.50;;;4.25;100.00
